Wetterdaten: Woche 02.02.09 - 08.02.09 (KW6)
Datum Zeit Temperatur Luftfeuchte Luftdruck Niederschlag Windrichtung Wind
02.02.2009 00:00 -3,2 C 86 % 1003,6 hPa 0,0 l/m NO 6,5 km/h (2 Bft)
02.02.2009 01:00 -3,5 C 87 % 1003,4 hPa 0,0 l/m N-NO 9,1 km/h (2 Bft)
02.02.2009 02:00 -3,7 C 88 % 1003,3 hPa 0,0 l/m N-NO 8,0 km/h (2 Bft)
02.02.2009 03:00 -3,9 C 89 % 1003,3 hPa 0,0 l/m N-NO 6,9 km/h (2 Bft)
02.02.2009 04:00 -4,2 C 91 % 1003,0 hPa 0,0 l/m NO 8,4 km/h (2 Bft)
02.02.2009 05:00 -4,1 C 91 % 1002,7 hPa 0,0 l/m NO 7,9 km/h (2 Bft)
02.02.2009 06:00 -4,1 C 92 % 1002,7 hPa 0,0 l/m NO 9,5 km/h (2 Bft)
02.02.2009 07:00 -4,1 C 92 % 1002,7 hPa 0,0 l/m N-NO 8,9 km/h (2 Bft)
02.02.2009 08:00 -4,0 C 92 % 1002,6 hPa 0,0 l/m NO 9,9 km/h (2 Bft)
02.02.2009 09:00 -3,6 C 91 % 1002,4 hPa 0,0 l/m N-NO 9,9 km/h (2 Bft)
02.02.2009 10:00 -2,9 C 89 % 1002,0 hPa 0,0 l/m NO 9,8 km/h (2 Bft)
02.02.2009 11:00 -2,0 C 87 % 1001,4 hPa 0,0 l/m NO 9,4 km/h (2 Bft)
02.02.2009 12:00 -0,5 C 81 % 1000,7 hPa 0,0 l/m NO 10,2 km/h (2 Bft)
02.02.2009 13:00 0,7 C 79 % 1000,1 hPa 0,0 l/m N-NO 7,5 km/h (2 Bft)
02.02.2009 14:00 2,5 C 73 % 999,2 hPa 0,0 l/m NO 7,2 km/h (2 Bft)
02.02.2009 15:00 2,8 C 74 % 998,8 hPa 0,0 l/m N 2,8 km/h (1 Bft)
02.02.2009 16:00 2,6 C 76 % 998,3 hPa 0,0 l/m N-NO 5,5 km/h (1 Bft)
02.02.2009 17:00 1,8 C 79 % 998,3 hPa 0,0 l/m N-NW 5,7 km/h (1 Bft)
02.02.2009 18:00 0,5 C 84 % 998,4 hPa 0,0 l/m NW 8,4 km/h (2 Bft)
02.02.2009 19:00 -0,2 C 87 % 998,4 hPa 0,0 l/m N 7,6 km/h (2 Bft)
02.02.2009 20:00 -0,3 C 88 % 998,4 hPa 0,0 l/m N-NW 4,0 km/h (1 Bft)
02.02.2009 21:00 -0,7 C 89 % 998,4 hPa 0,0 l/m N-NW 5,9 km/h (2 Bft)
02.02.2009 22:00 -0,9 C 90 % 998,2 hPa 0,0 l/m N-NW 4,8 km/h (1 Bft)
02.02.2009 23:00 -0,9 C 91 % 998,0 hPa 0,0 l/m NW 4,3 km/h (1 Bft)
03.02.2009 00:00 -1,1 C 92 % 998,1 hPa 0,0 l/m N-NW 5,7 km/h (1 Bft)
03.02.2009 01:00 -1,1 C 92 % 998,2 hPa 0,0 l/m N-NW 5,1 km/h (1 Bft)
03.02.2009 02:00 -1,3 C 93 % 998,4 hPa 0,0 l/m N-NW 5,2 km/h (1 Bft)
03.02.2009 03:00 -1,5 C 94 % 998,6 hPa 0,0 l/m N-NW 4,4 km/h (1 Bft)
03.02.2009 04:00 -1,7 C 94 % 998,8 hPa 0,0 l/m N-NW 2,3 km/h (1 Bft)
03.02.2009 05:00 -1,9 C 94 % 998,9 hPa 0,0 l/m N 1,1 km/h (0 Bft)
03.02.2009 06:00 -2,4 C 93 % 999,1 hPa 0,0 l/m N-NW 1,9 km/h (1 Bft)
03.02.2009 07:00 -2,8 C 94 % 999,7 hPa 0,0 l/m N 1,2 km/h (1 Bft)
03.02.2009 08:00 -3,2 C 94 % 1000,3 hPa 0,0 l/m N 0,0 km/h (0 Bft)
03.02.2009 09:00 -3,0 C 96 % 1000,2 hPa 0,0 l/m N 0,3 km/h (0 Bft)
03.02.2009 10:00 -0,3 C 97 % 1000,3 hPa 0,0 l/m O 5,1 km/h (1 Bft)
03.02.2009 11:00 2,6 C 87 % 999,9 hPa 0,0 l/m NO 3,9 km/h (1 Bft)
03.02.2009 12:00 6,2 C 71 % 999,3 hPa 0,0 l/m NO 4,8 km/h (1 Bft)
03.02.2009 13:00 8,4 C 59 % 998,7 hPa 0,0 l/m W-SW 5,1 km/h (1 Bft)
03.02.2009 14:00 9,3 C 52 % 998,1 hPa 0,0 l/m N-NO 8,4 km/h (2 Bft)
03.02.2009 15:00 9,6 C 50 % 998,1 hPa 0,0 l/m N-NO 5,9 km/h (2 Bft)
03.02.2009 16:00 7,6 C 59 % 998,0 hPa 0,0 l/m O 3,1 km/h (1 Bft)
03.02.2009 17:00 4,8 C 68 % 998,1 hPa 0,0 l/m NO 3,3 km/h (1 Bft)
03.02.2009 18:00 3,4 C 72 % 998,4 hPa 0,0 l/m N 3,1 km/h (1 Bft)
03.02.2009 19:00 1,7 C 78 % 998,5 hPa 0,0 l/m N 1,6 km/h (1 Bft)
03.02.2009 20:00 0,8 C 82 % 998,8 hPa 0,0 l/m N-NW 4,4 km/h (1 Bft)
03.02.2009 21:00 0,3 C 85 % 999,0 hPa 0,0 l/m N-NW 2,1 km/h (1 Bft)
03.02.2009 22:00 -0,5 C 87 % 998,8 hPa 0,0 l/m N 0,5 km/h (0 Bft)
03.02.2009 23:00 -0,8 C 92 % 998,7 hPa 0,0 l/m N-NW 3,7 km/h (1 Bft)
04.02.2009 00:00 -0,4 C 91 % 998,7 hPa 0,0 l/m N-NW 2,3 km/h (1 Bft)
04.02.2009 01:00 -1,2 C 89 % 998,6 hPa 0,0 l/m N 0,3 km/h (0 Bft)
04.02.2009 02:00 -2,0 C 91 % 998,5 hPa 0,0 l/m N 0,0 km/h (0 Bft)
04.02.2009 03:00 -2,6 C 92 % 998,3 hPa 0,0 l/m N 0,0 km/h (0 Bft)
04.02.2009 04:00 -3,0 C 93 % 998,4 hPa 0,0 l/m N 0,4 km/h (0 Bft)
04.02.2009 05:00 -3,4 C 92 % 998,4 hPa 0,0 l/m N 0,0 km/h (0 Bft)
04.02.2009 06:00 -3,8 C 92 % 998,5 hPa 0,0 l/m N 0,1 km/h (0 Bft)
04.02.2009 07:00 -4,0 C 93 % 998,4 hPa 0,0 l/m N 0,0 km/h (0 Bft)
04.02.2009 08:00 -3,9 C 94 % 998,5 hPa 0,0 l/m N 0,0 km/h (0 Bft)
04.02.2009 09:00 -2,0 C 98 % 998,6 hPa 0,0 l/m N-NW 0,8 km/h (0 Bft)
04.02.2009 10:00 0,3 C 96 % 998,6 hPa 0,0 l/m N 2,0 km/h (1 Bft)
04.02.2009 11:00 2,5 C 89 % 998,6 hPa 0,0 l/m NW 4,0 km/h (1 Bft)
04.02.2009 12:00 5,3 C 78 % 997,9 hPa 0,0 l/m N-NW 4,5 km/h (1 Bft)
04.02.2009 13:00 7,3 C 70 % 997,7 hPa 0,0 l/m SW 4,7 km/h (1 Bft)
04.02.2009 14:00 7,3 C 69 % 997,8 hPa 0,0 l/m SW 6,3 km/h (2 Bft)
04.02.2009 15:00 6,6 C 74 % 998,0 hPa 0,0 l/m SW 9,7 km/h (2 Bft)
04.02.2009 16:00 5,6 C 78 % 998,3 hPa 0,0 l/m S-SW 6,1 km/h (2 Bft)
04.02.2009 17:00 4,8 C 79 % 998,5 hPa 0,0 l/m S-SW 1,5 km/h (1 Bft)
04.02.2009 18:00 3,3 C 82 % 998,9 hPa 0,0 l/m N 0,0 km/h (0 Bft)
04.02.2009 19:00 2,2 C 86 % 999,2 hPa 0,0 l/m N 0,0 km/h (0 Bft)
04.02.2009 20:00 1,4 C 88 % 999,7 hPa 0,0 l/m N 0,0 km/h (0 Bft)
04.02.2009 21:00 0,6 C 90 % 999,6 hPa 0,0 l/m N 0,0 km/h (0 Bft)
04.02.2009 22:00 0,1 C 91 % 999,8 hPa 0,0 l/m N 0,4 km/h (0 Bft)
04.02.2009 23:00 -0,4 C 92 % 1000,0 hPa 0,0 l/m N 0,7 km/h (0 Bft)
05.02.2009 00:00 -0,9 C 93 % 999,9 hPa 0,0 l/m N 0,5 km/h (0 Bft)
05.02.2009 01:00 -1,3 C 94 % 999,7 hPa 0,0 l/m N 0,8 km/h (0 Bft)
05.02.2009 02:00 -1,6 C 95 % 999,6 hPa 0,0 l/m W-NW 1,9 km/h (1 Bft)
05.02.2009 03:00 -1,8 C 95 % 999,4 hPa 0,0 l/m W-NW 2,4 km/h (1 Bft)
05.02.2009 04:00 -1,9 C 96 % 998,8 hPa 0,0 l/m N-NW 3,6 km/h (1 Bft)
05.02.2009 05:00 -1,8 C 97 % 998,5 hPa 0,0 l/m N-NW 6,0 km/h (2 Bft)
05.02.2009 06:00 -1,9 C 96 % 998,4 hPa 0,0 l/m N-NW 7,3 km/h (2 Bft)
05.02.2009 07:00 -2,6 C 93 % 998,0 hPa 0,0 l/m N-NW 5,7 km/h (1 Bft)
05.02.2009 08:00 -3,1 C 95 % 997,7 hPa 0,0 l/m N-NW 8,3 km/h (2 Bft)
05.02.2009 09:00 -2,5 C 96 % 997,8 hPa 0,0 l/m N-NW 8,7 km/h (2 Bft)
05.02.2009 10:00 -1,3 C 95 % 997,9 hPa 0,0 l/m N-NO 7,2 km/h (2 Bft)
05.02.2009 11:00 0,1 C 93 % 998,6 hPa 0,0 l/m N-NW 12,8 km/h (3 Bft)
05.02.2009 12:00 2,0 C 88 % 999,2 hPa 0,0 l/m NO 8,5 km/h (2 Bft)
05.02.2009 13:00 4,7 C 78 % 999,2 hPa 0,0 l/m S-SO 6,7 km/h (2 Bft)
05.02.2009 14:00 6,4 C 72 % 999,3 hPa 0,0 l/m S-SW 6,3 km/h (2 Bft)
05.02.2009 15:00 6,5 C 72 % 999,4 hPa 0,0 l/m S-SW 6,3 km/h (2 Bft)
05.02.2009 16:00 6,2 C 74 % 999,4 hPa 0,0 l/m SW 8,2 km/h (2 Bft)
05.02.2009 17:00 5,0 C 76 % 999,2 hPa 0,0 l/m N 0,9 km/h (0 Bft)
05.02.2009 18:00 2,9 C 81 % 999,3 hPa 0,0 l/m N 0,7 km/h (0 Bft)
05.02.2009 19:00 2,0 C 86 % 999,1 hPa 0,0 l/m N 2,0 km/h (1 Bft)
05.02.2009 20:00 1,7 C 87 % 999,2 hPa 0,0 l/m N 4,5 km/h (1 Bft)
05.02.2009 21:00 1,4 C 89 % 999,0 hPa 0,0 l/m N-NW 5,6 km/h (1 Bft)
05.02.2009 22:00 1,4 C 90 % 998,6 hPa 0,0 l/m N-NW 9,1 km/h (2 Bft)
05.02.2009 23:00 1,5 C 89 % 998,0 hPa 0,0 l/m N 3,3 km/h (1 Bft)
06.02.2009 00:00 1,3 C 90 % 997,3 hPa 0,0 l/m N-NW 4,9 km/h (1 Bft)
06.02.2009 01:00 1,3 C 89 % 997,0 hPa 0,0 l/m N-NW 8,6 km/h (2 Bft)
06.02.2009 02:00 1,6 C 88 % 997,0 hPa 0,0 l/m N-NW 11,0 km/h (2 Bft)
06.02.2009 03:00 1,2 C 90 % 996,6 hPa 0,0 l/m N-NW 12,9 km/h (3 Bft)
06.02.2009 04:00 1,3 C 89 % 996,2 hPa 0,0 l/m N 4,7 km/h (1 Bft)
06.02.2009 05:00 1,0 C 89 % 995,7 hPa 0,0 l/m O 1,6 km/h (1 Bft)
06.02.2009 06:00 0,4 C 91 % 995,5 hPa 0,0 l/m N-NW 4,9 km/h (1 Bft)
06.02.2009 07:00 -0,0 C 93 % 995,6 hPa 0,0 l/m N 5,8 km/h (1 Bft)
06.02.2009 08:00 -0,2 C 92 % 995,2 hPa 0,0 l/m N 0,9 km/h (0 Bft)
06.02.2009 09:00 -0,0 C 94 % 994,5 hPa 0,0 l/m O 1,6 km/h (1 Bft)
06.02.2009 10:00 0,8 C 92 % 994,3 hPa 0,0 l/m N-NW 3,5 km/h (1 Bft)
06.02.2009 11:00 2,4 C 88 % 994,1 hPa 0,0 l/m N-NW 6,7 km/h (2 Bft)
06.02.2009 12:00 3,3 C 85 % 993,3 hPa 0,0 l/m N 7,5 km/h (2 Bft)
06.02.2009 13:00 3,5 C 84 % 992,6 hPa 0,0 l/m N-NO 3,2 km/h (1 Bft)
06.02.2009 14:00 3,9 C 82 % 992,1 hPa 0,0 l/m O-NO 3,1 km/h (1 Bft)
06.02.2009 15:00 4,2 C 82 % 991,5 hPa 0,0 l/m O-NO 5,2 km/h (1 Bft)
06.02.2009 16:00 4,2 C 82 % 991,3 hPa 0,0 l/m N-NO 5,1 km/h (1 Bft)
06.02.2009 17:00 3,3 C 83 % 991,0 hPa 0,0 l/m N-NW 6,2 km/h (2 Bft)
06.02.2009 18:00 1,2 C 88 % 991,0 hPa 0,0 l/m N 4,4 km/h (1 Bft)
06.02.2009 19:00 0,1 C 91 % 990,6 hPa 0,0 l/m N 2,0 km/h (1 Bft)
06.02.2009 20:00 -0,4 C 94 % 990,2 hPa 0,0 l/m N-NO 4,3 km/h (1 Bft)
06.02.2009 21:00 -0,6 C 95 % 989,5 hPa 0,0 l/m N-NO 5,3 km/h (1 Bft)
06.02.2009 22:00 -0,7 C 95 % 989,4 hPa 0,0 l/m N-NO 6,1 km/h (2 Bft)
06.02.2009 23:00 -0,9 C 96 % 989,1 hPa 0,0 l/m N-NO 5,3 km/h (1 Bft)
07.02.2009 00:00 -1,0 C 97 % 989,0 hPa 0,0 l/m N-NO 8,2 km/h (2 Bft)
07.02.2009 01:00 -1,1 C 97 % 988,8 hPa 0,0 l/m N-NO 5,5 km/h (1 Bft)
07.02.2009 02:00 -1,2 C 97 % 988,6 hPa 0,0 l/m O-SO 3,6 km/h (1 Bft)
07.02.2009 03:00 -1,3 C 97 % 988,2 hPa 0,0 l/m S-SW 4,7 km/h (1 Bft)
07.02.2009 04:00 -1,4 C 97 % 988,0 hPa 0,0 l/m SW 2,8 km/h (1 Bft)
07.02.2009 05:00 -1,5 C 97 % 987,7 hPa 0,0 l/m S-SO 2,1 km/h (1 Bft)
07.02.2009 06:00 -1,6 C 97 % 987,5 hPa 0,0 l/m S-SW 2,5 km/h (1 Bft)
07.02.2009 07:00 -1,8 C 98 % 987,8 hPa 0,0 l/m S-SW 3,1 km/h (1 Bft)
07.02.2009 08:00 -1,6 C 98 % 987,9 hPa 0,0 l/m S-SW 2,0 km/h (1 Bft)
07.02.2009 09:00 -0,9 C 98 % 988,2 hPa 0,0 l/m S-SW 2,7 km/h (1 Bft)
07.02.2009 10:00 0,1 C 99 % 988,1 hPa 0,0 l/m SW 5,1 km/h (1 Bft)
07.02.2009 11:00 1,1 C 98 % 988,6 hPa 0,0 l/m S-SW 7,5 km/h (2 Bft)
07.02.2009 12:00 2,7 C 94 % 988,2 hPa 0,0 l/m S-SW 7,5 km/h (2 Bft)
07.02.2009 13:00 3,9 C 90 % 988,0 hPa 0,0 l/m SW 11,0 km/h (2 Bft)
07.02.2009 14:00 4,2 C 90 % 988,1 hPa 0,0 l/m W-SW 11,8 km/h (2 Bft)
07.02.2009 15:00 4,8 C 87 % 988,2 hPa 0,0 l/m SW 7,1 km/h (2 Bft)
07.02.2009 16:00 4,7 C 85 % 988,8 hPa 0,0 l/m W-NW 12,6 km/h (3 Bft)
07.02.2009 17:00 4,0 C 86 % 989,5 hPa 0,0 l/m W-SW 8,2 km/h (2 Bft)
07.02.2009 18:00 3,6 C 89 % 990,3 hPa 0,0 l/m W 7,9 km/h (2 Bft)
07.02.2009 19:00 3,3 C 91 % 991,0 hPa 0,0 l/m W 7,8 km/h (2 Bft)
07.02.2009 20:00 3,0 C 92 % 991,5 hPa 0,0 l/m W 6,8 km/h (2 Bft)
07.02.2009 21:00 2,7 C 93 % 992,2 hPa 0,0 l/m SW 3,9 km/h (1 Bft)
07.02.2009 22:00 2,1 C 94 % 992,8 hPa 0,0 l/m SW 2,7 km/h (1 Bft)
07.02.2009 23:00 1,8 C 96 % 993,2 hPa 0,0 l/m N 0,5 km/h (0 Bft)
08.02.2009 00:00 1,7 C 96 % 993,7 hPa 0,0 l/m N 0,3 km/h (0 Bft)
08.02.2009 01:00 1,5 C 96 % 994,0 hPa 0,0 l/m NW 3,1 km/h (1 Bft)
08.02.2009 02:00 1,5 C 96 % 994,4 hPa 0,0 l/m N 0,5 km/h (0 Bft)
08.02.2009 03:00 1,3 C 96 % 994,9 hPa 0,6 l/m N 0,8 km/h (0 Bft)
08.02.2009 04:00 0,9 C 96 % 995,6 hPa 1,2 l/m N 0,4 km/h (0 Bft)
08.02.2009 05:00 0,7 C 96 % 996,4 hPa 1,0 l/m N-NW 4,5 km/h (1 Bft)
08.02.2009 06:00 0,6 C 97 % 997,1 hPa 0,6 l/m N-NW 7,9 km/h (2 Bft)
08.02.2009 07:00 0,5 C 96 % 998,4 hPa 0,0 l/m N-NW 6,3 km/h (2 Bft)
08.02.2009 08:00 0,3 C 95 % 999,8 hPa 0,0 l/m N-NW 10,2 km/h (2 Bft)
08.02.2009 09:00 0,2 C 94 % 1001,1 hPa 0,0 l/m N 8,2 km/h (2 Bft)
08.02.2009 10:00 0,1 C 92 % 1002,3 hPa 0,0 l/m N-NW 9,7 km/h (2 Bft)
08.02.2009 11:00 0,1 C 91 % 1003,1 hPa 0,0 l/m N-NW 6,0 km/h (2 Bft)
08.02.2009 12:00 0,6 C 87 % 1003,6 hPa 0,0 l/m N-NW 8,2 km/h (2 Bft)
08.02.2009 13:00 0,6 C 83 % 1004,2 hPa 0,0 l/m N-NO 8,8 km/h (2 Bft)
08.02.2009 14:00 0,5 C 82 % 1004,6 hPa 0,0 l/m N-NO 7,9 km/h (2 Bft)
08.02.2009 15:00 0,5 C 79 % 1005,3 hPa 0,0 l/m N-NO 9,1 km/h (2 Bft)
08.02.2009 16:00 0,7 C 79 % 1006,0 hPa 0,0 l/m N-NO 4,7 km/h (1 Bft)
08.02.2009 17:00 0,3 C 84 % 1006,5 hPa 0,0 l/m N 0,5 km/h (0 Bft)
08.02.2009 18:00 -0,2 C 89 % 1007,3 hPa 0,0 l/m N-NO 0,7 km/h (0 Bft)
08.02.2009 19:00 -0,6 C 89 % 1007,9 hPa 0,0 l/m W-NW 4,3 km/h (1 Bft)
08.02.2009 20:00 -0,7 C 81 % 1008,5 hPa 0,0 l/m N-NW 9,0 km/h (2 Bft)
08.02.2009 21:00 -0,9 C 81 % 1009,2 hPa 0,0 l/m NW 7,6 km/h (2 Bft)
08.02.2009 22:00 -1,0 C 81 % 1009,6 hPa 0,0 l/m N 5,3 km/h (1 Bft)
08.02.2009 23:00 -1,3 C 86 % 1010,2 hPa 0,0 l/m N 0,5 km/h (0 Bft)
Min-Datum _ 02.02.09 03.02.09 07.02.09 - - 02.02.09
_ Min-Zeit 04:05 14:45 06:10 - - 15:30
Minimum _ -4,2 C 48 % 987,1 hPa - - 0,0 km/h (0 Bft)
Max-Datum _ 03.02.09 07.02.09 08.02.09 08.02.09 - 07.02.09
_ Max-Zeit 14:45 09:30 23:55 04:00 - 13:40
Maximum _ 9,8 C 99 % 1010,4 hPa 1,2 l/m - 19,3 km/h
SW (3 Bft)
Durchschnitt _ 0,6 C 88 % 997,4 hPa #3,4 l/m N-NW 4,9 km/h (1 Bft)